Time;durP1;ratioP1;P1;durP2;ratioP2;P2;SDS_P1;SDS_P2;PMS_P1;PMS_P2;Temp;Humidity;BMP_temperature;BMP_pressure;BME280_temperature;BME280_humidity;BME280_pressure;Samples;Min_cycle;Max_cycle;Signal;HPM_P1;HPM_P2
2021/11/06 00:01:22;;;;;;;160.65;26.08;;;;;;;11.27;96.21;100243.19;5050811;28;20398;-39
2021/11/06 00:03:47;;;;;;;80.05;24.67;;;;;;;11.26;97.13;100239.72;5049300;28;20029;-38
2021/11/06 00:06:12;;;;;;;150.80;26.15;;;;;;;11.25;97.22;100251.41;5050530;28;20029;-38
2021/11/06 00:08:38;;;;;;;140.20;27.17;;;;;;;11.62;95.33;100257.34;5050404;28;20082;-38
2021/11/06 00:11:03;;;;;;;267.52;27.60;;;;;;;11.61;94.37;100255.69;5050762;28;20025;-39
2021/11/06 00:13:29;;;;;;;140.57;24.88;;;;;;;11.43;94.02;100252.75;5050527;28;20103;-38
2021/11/06 00:15:55;;;;;;;74.38;22.98;;;;;;;11.44;94.11;100254.38;5050452;28;20413;-39
2021/11/06 00:18:21;;;;;;;111.00;23.73;;;;;;;11.25;95.58;100253.22;5050501;28;20428;-39
2021/11/06 00:20:46;;;;;;;171.55;23.40;;;;;;;11.32;94.51;100262.91;5050397;28;20145;-39
2021/11/06 00:23:11;;;;;;;76.93;21.73;;;;;;;11.13;94.16;100256.44;5050311;28;20039;-39
2021/11/06 00:25:37;;;;;;;57.08;21.83;;;;;;;11.26;95.08;100261.03;5050402;28;20488;-39
2021/11/06 00:28:03;;;;;;;49.50;22.40;;;;;;;11.14;96.02;100257.28;5050800;28;20473;-39
2021/11/06 00:30:28;;;;;;;63.47;23.48;;;;;;;11.38;95.29;100266.63;5050828;28;20157;-39
2021/11/06 00:32:55;;;;;;;97.40;24.38;;;;;;;11.53;94.85;100267.34;5050570;28;20044;-39
2021/11/06 00:35:22;;;;;;;69.20;22.77;;;;;;;11.41;94.44;100271.59;5050136;28;20033;-39
2021/11/06 00:37:47;;;;;;;48.22;22.38;;;;;;;11.28;94.79;100269.66;5050349;28;20094;-39
2021/11/06 00:40:13;;;;;;;55.72;22.05;;;;;;;11.22;95.69;100266.97;5050101;28;20024;-39
2021/11/06 00:42:38;;;;;;;67.68;22.80;;;;;;;11.38;95.60;100260.47;5049629;28;20029;-39
2021/11/06 00:45:05;;;;;;;79.00;25.55;;;;;;;11.48;94.71;100256.47;5050033;28;20032;-39
2021/11/06 00:47:30;;;;;;;52.85;23.15;;;;;;;11.39;95.64;100270.13;5050082;28;20499;-39
2021/11/06 00:49:56;;;;;;;52.38;23.10;;;;;;;11.38;95.99;100265.81;5049377;28;20108;-39
2021/11/06 00:52:22;;;;;;;74.05;23.95;;;;;;;11.49;94.49;100268.75;5050207;28;20039;-39
2021/11/06 00:54:47;;;;;;;51.53;23.90;;;;;;;11.52;95.33;100270.22;5050464;28;20029;-39
2021/11/06 00:57:13;;;;;;;57.35;22.40;;;;;;;11.44;94.68;100265.88;5050273;28;20369;-39
2021/11/06 00:59:38;;;;;;;53.80;21.80;;;;;;;11.46;94.64;100265.66;5050234;28;20037;-38
2021/11/06 01:02:04;;;;;;;138.80;26.70;;;;;;;11.60;93.95;100256.72;5050345;28;20477;-39
2021/11/06 01:04:29;;;;;;;61.97;21.77;;;;;;;11.53;93.56;100258.53;5050292;28;20035;-39
2021/11/06 01:06:54;;;;;;;65.13;22.88;;;;;;;11.37;94.30;100257.00;5048913;28;20044;-39
2021/11/06 01:09:20;;;;;;;59.47;23.75;;;;;;;11.42;94.44;100256.41;5050181;28;20057;-39
2021/11/06 01:11:45;;;;;;;66.57;24.30;;;;;;;11.40;95.25;100261.09;5050455;28;20033;-38
2021/11/06 01:14:11;;;;;;;59.60;23.60;;;;;;;11.42;95.33;100257.22;5050162;28;20032;-39
2021/11/06 01:16:36;;;;;;;58.42;23.20;;;;;;;11.45;94.92;100248.03;5049765;28;20078;-38
2021/11/06 01:19:02;;;;;;;53.38;22.48;;;;;;;11.45;95.42;100245.38;5050002;28;20063;-38
2021/11/06 01:21:28;;;;;;;52.55;23.08;;;;;;;11.39;95.89;100236.31;5050048;28;20027;-39
2021/11/06 01:23:54;;;;;;;49.55;22.63;;;;;;;11.49;94.62;100239.44;5050376;28;20029;-38
2021/11/06 01:26:19;;;;;;;48.05;23.52;;;;;;;11.57;93.31;100230.44;5050189;28;20035;-39
2021/11/06 01:28:45;;;;;;;69.43;22.17;;;;;;;11.51;93.08;100239.25;5048716;28;20032;-39
2021/11/06 01:31:10;;;;;;;58.92;23.27;;;;;;;11.47;92.79;100243.31;5049874;28;20490;-39
2021/11/06 01:33:36;;;;;;;45.00;21.38;;;;;;;11.29;94.45;100236.66;5048234;28;20049;-38
2021/11/06 01:36:02;;;;;;;51.75;22.58;;;;;;;11.29;94.22;100244.66;5049837;28;20037;-39
2021/11/06 01:38:27;;;;;;;59.00;23.10;;;;;;;11.38;94.04;100257.81;5049975;28;20037;-39
2021/11/06 01:40:53;;;;;;;50.22;24.08;;;;;;;11.43;94.16;100253.56;5049508;28;20036;-39
2021/11/06 01:43:18;;;;;;;58.25;24.25;;;;;;;11.43;94.12;100260.72;5049540;28;20028;-39
2021/11/06 01:45:44;;;;;;;66.75;25.60;;;;;;;11.43;95.00;100258.88;5049402;28;20047;-38
2021/11/06 01:48:09;;;;;;;56.33;24.17;;;;;;;11.50;94.25;100264.25;5049301;28;20412;-38
2021/11/06 01:50:35;;;;;;;70.70;24.85;;;;;;;11.50;94.12;100283.72;5049154;28;20049;-38
2021/11/06 01:53:00;;;;;;;63.17;23.90;;;;;;;11.55;93.40;100277.81;5049184;28;20035;-39
2021/11/06 01:55:26;;;;;;;55.42;24.10;;;;;;;11.52;92.86;100267.56;5049303;28;20036;-39
2021/11/06 01:57:52;;;;;;;49.85;23.60;;;;;;;11.47;93.37;100272.63;5049355;28;20406;-39
2021/11/06 02:00:20;;;;;;;47.53;22.33;;;;;;;11.39;93.06;100256.81;5048945;28;20025;-39
2021/11/06 02:02:46;;;;;;;52.05;22.95;;;;;;;11.43;92.45;100263.41;5048524;28;20458;-39
2021/11/06 02:05:13;;;;;;;45.85;22.30;;;;;;;11.39;92.69;100275.47;5049227;28;20032;-39
2021/11/06 02:07:38;;;;;;;45.20;21.55;;;;;;;11.26;93.02;100273.53;5049071;28;20469;-39
2021/11/06 02:10:05;;;;;;;45.22;21.42;;;;;;;11.42;92.91;100275.88;5049502;28;20063;-39
2021/11/06 02:12:31;;;;;;;41.00;20.30;;;;;;;11.30;92.38;100275.59;5049357;28;20029;-39
2021/11/06 02:14:56;;;;;;;40.33;20.52;;;;;;;11.20;92.74;100274.31;5048932;28;20094;-39
2021/11/06 02:17:22;;;;;;;37.50;20.90;;;;;;;11.25;93.35;100275.38;5049062;28;20029;-39
2021/11/06 02:19:47;;;;;;;43.50;22.02;;;;;;;11.19;94.10;100276.13;5049167;28;20429;-39
2021/11/06 02:22:13;;;;;;;36.47;19.55;;;;;;;11.26;93.21;100279.69;5049676;28;20621;-39
2021/11/06 02:24:38;;;;;;;37.55;19.05;;;;;;;11.07;93.99;100291.03;5049412;28;20025;-39
2021/11/06 02:27:04;;;;;;;35.15;19.02;;;;;;;11.25;92.22;100278.06;5048412;28;20029;-39
2021/11/06 02:29:30;;;;;;;37.25;19.95;;;;;;;11.17;92.32;100272.84;5051443;28;20017;-38
2021/11/06 02:31:56;;;;;;;35.00;19.48;;;;;;;11.24;92.49;100284.38;5052585;28;20040;-39
2021/11/06 02:34:21;;;;;;;38.63;19.88;;;;;;;11.18;92.46;100276.34;5051871;28;20060;-39
2021/11/06 02:36:47;;;;;;;35.78;19.02;;;;;;;11.00;93.30;100282.16;5052887;28;20056;-39
2021/11/06 02:39:12;;;;;;;37.17;19.52;;;;;;;11.05;92.55;100274.41;5052495;28;20025;-38
2021/11/06 02:41:38;;;;;;;36.08;19.30;;;;;;;11.03;92.43;100268.47;5052649;28;20408;-39
2021/11/06 02:44:08;;;;;;;34.90;19.75;;;;;;;11.07;93.27;100277.69;5052623;28;20433;-39
2021/11/06 02:46:34;;;;;;;;;;;;;;;11.00;92.96;100277.63;5052753;28;20116;-39
2021/11/06 02:49:00;;;;;;;31.63;18.55;;;;;;;11.02;92.53;100282.78;5052870;28;19963;-39
2021/11/06 02:51:25;;;;;;;33.08;19.33;;;;;;;11.08;92.08;100263.34;5052590;28;20488;-38
2021/11/06 02:53:51;;;;;;;37.75;19.65;;;;;;;11.11;92.09;100262.97;5052877;28;20036;-38
2021/11/06 02:56:16;;;;;;;35.13;19.63;;;;;;;11.14;91.55;100259.94;5052580;28;20469;-39
2021/11/06 02:58:42;;;;;;;35.15;19.90;;;;;;;11.14;91.08;100257.28;5052545;28;20029;-39
2021/11/06 03:01:07;;;;;;;34.25;19.90;;;;;;;10.95;91.62;100277.41;5052761;28;20029;-39
2021/11/06 03:03:33;;;;;;;32.78;18.15;;;;;;;10.64;93.53;100273.28;5052858;28;20134;-39
2021/11/06 03:05:58;;;;;;;30.38;17.55;;;;;;;10.77;93.31;100288.50;5052633;28;20503;-39
2021/11/06 03:08:24;;;;;;;34.78;19.17;;;;;;;10.74;92.96;100284.41;5052765;28;20477;-39
2021/11/06 03:10:49;;;;;;;33.75;19.80;;;;;;;10.93;92.59;100280.25;5052910;28;20017;-38
2021/11/06 03:13:15;;;;;;;35.65;19.83;;;;;;;10.95;92.33;100282.75;5053054;28;20029;-39
2021/11/06 03:15:40;;;;;;;37.50;20.40;;;;;;;10.92;91.59;100283.94;5034751;28;20021;-39
2021/11/06 03:18:06;;;;;;;37.67;20.42;;;;;;;10.91;91.24;100297.47;5052662;28;20029;-39
2021/11/06 03:20:32;;;;;;;37.47;20.52;;;;;;;10.76;92.83;100298.34;5052359;28;20396;-39
2021/11/06 03:22:58;;;;;;;35.47;19.88;;;;;;;10.78;91.85;100305.34;5052112;28;20116;-39
2021/11/06 03:25:27;;;;;;;34.70;20.65;;;;;;;10.74;92.96;100308.38;5051240;28;20070;-39
2021/11/06 03:27:52;;;;;;;38.20;20.60;;;;;;;10.87;91.74;100317.47;5051667;28;20106;-39
2021/11/06 03:30:18;;;;;;;37.08;19.75;;;;;;;10.78;92.18;100300.81;5050611;28;20068;-38
2021/11/06 03:32:43;;;;;;;38.40;21.13;;;;;;;10.74;92.47;100294.25;5052046;28;20086;-39
2021/11/06 03:35:09;;;;;;;42.90;21.15;;;;;;;10.72;92.47;100291.75;5052020;28;20036;-38
2021/11/06 03:37:34;;;;;;;72.03;22.20;;;;;;;10.75;92.97;100298.53;5051862;28;20364;-38
2021/11/06 03:40:00;;;;;;;42.45;20.75;;;;;;;10.77;92.12;100309.81;5050817;28;20036;-38
2021/11/06 03:42:25;;;;;;;48.35;20.90;;;;;;;10.68;92.49;100311.78;5052461;28;20063;-38
2021/11/06 03:44:51;;;;;;;40.97;20.55;;;;;;;10.62;93.00;100317.84;5050496;28;20075;-38
2021/11/06 03:47:17;;;;;;;93.85;22.25;;;;;;;10.57;94.55;100317.63;5051643;28;20235;-38
2021/11/06 03:49:43;;;;;;;59.40;21.88;;;;;;;10.63;92.56;100316.84;5051907;28;20448;-38
2021/11/06 03:52:08;;;;;;;62.05;20.27;;;;;;;10.52;92.89;100314.69;5051782;28;20497;-39
2021/11/06 03:54:33;;;;;;;74.05;21.27;;;;;;;10.49;94.10;100313.25;5050407;28;20025;-38
2021/11/06 03:56:59;;;;;;;179.95;23.85;;;;;;;10.51;93.85;100313.88;5051787;28;20033;-38
2021/11/06 03:59:24;;;;;;;80.82;22.23;;;;;;;10.65;94.00;100324.66;5051773;28;20534;-38
2021/11/06 04:01:51;;;;;;;58.47;22.80;;;;;;;10.81;91.94;100329.72;5051618;28;20092;-39
2021/11/06 04:04:16;;;;;;;66.15;21.80;;;;;;;10.67;93.42;100325.28;5051442;28;20029;-38
2021/11/06 04:06:42;;;;;;;84.10;22.38;;;;;;;10.54;94.50;100333.94;5051815;28;20035;-40
2021/11/06 04:09:07;;;;;;;96.15;21.02;;;;;;;10.43;94.90;100319.28;5052169;28;20435;-38
2021/11/06 04:11:33;;;;;;;140.70;21.20;;;;;;;10.52;94.40;100310.19;5051936;28;20025;-40
2021/11/06 04:13:58;;;;;;;180.02;22.30;;;;;;;10.38;95.40;100303.09;5051728;28;20083;-38
2021/11/06 04:16:24;;;;;;;116.68;22.00;;;;;;;10.46;94.31;100310.94;5051653;28;20033;-38
2021/11/06 04:18:49;;;;;;;87.93;23.88;;;;;;;10.37;95.48;100333.34;5051892;28;20083;-40
2021/11/06 04:21:15;;;;;;;61.72;21.35;;;;;;;10.32;94.69;100344.56;5051568;28;20021;-37
2021/11/06 04:23:40;;;;;;;55.22;22.08;;;;;;;10.43;93.25;100350.41;5051667;28;20032;-37
2021/11/06 04:26:07;;;;;;;71.90;24.08;;;;;;;10.46;94.53;100348.19;5051899;28;20021;-40
2021/11/06 04:28:32;;;;;;;105.80;22.23;;;;;;;10.55;94.36;100351.59;5051566;28;20036;-38
2021/11/06 04:30:58;;;;;;;52.15;20.58;;;;;;;10.43;95.00;100350.41;5051812;28;20036;-38
2021/11/06 04:33:23;;;;;;;93.93;23.20;;;;;;;10.28;94.14;100314.00;5051281;28;20106;-39
2021/11/06 04:35:49;;;;;;;175.68;21.92;;;;;;;10.23;94.29;100334.19;5051325;28;20066;-39
2021/11/06 04:38:14;;;;;;;133.43;24.17;;;;;;;10.36;94.48;100331.72;5051587;28;20033;-39
2021/11/06 04:40:40;;;;;;;164.75;22.42;;;;;;;10.36;92.99;100329.88;5051263;28;20339;-39
2021/11/06 04:43:05;;;;;;;138.88;23.00;;;;;;;10.29;94.06;100322.81;5051376;28;20472;-39
2021/11/06 04:45:31;;;;;;;88.05;22.38;;;;;;;10.13;93.68;100331.84;5051102;28;20434;-40
2021/11/06 04:47:57;;;;;;;58.22;21.33;;;;;;;10.09;94.55;100331.38;5050814;28;20029;-40
2021/11/06 04:50:22;;;;;;;57.17;21.85;;;;;;;10.04;94.59;100324.97;5050216;28;20036;-39
2021/11/06 04:52:47;;;;;;;53.33;21.55;;;;;;;10.00;94.96;100331.69;5050987;28;20056;-39
2021/11/06 04:55:15;;;;;;;92.03;22.42;;;;;;;10.05;93.71;100323.94;5051013;28;20029;-38
2021/11/06 04:57:40;;;;;;;84.60;21.42;;;;;;;9.88;94.40;100332.16;5050785;28;20028;-38
2021/11/06 05:00:07;;;;;;;83.63;21.67;;;;;;;9.92;95.45;100345.91;5050869;28;20021;-39
2021/11/06 05:02:32;;;;;;;58.45;21.23;;;;;;;9.66;95.95;100347.16;5050796;28;20045;-39
2021/11/06 05:04:58;;;;;;;51.17;20.92;;;;;;;9.82;95.84;100351.47;5050949;28;20464;-39
2021/11/06 05:07:24;;;;;;;54.13;21.02;;;;;;;9.85;95.64;100361.75;5050889;28;20457;-39
2021/11/06 05:09:50;;;;;;;45.67;20.30;;;;;;;10.11;94.90;100365.75;5050774;28;20021;-39
2021/11/06 05:12:19;;;;;;;70.70;20.98;;;;;;;10.38;92.83;100361.63;5050590;28;20461;-39
2021/11/06 05:14:44;;;;;;;95.45;21.90;;;;;;;10.15;92.75;100353.75;5050979;28;20025;-39
2021/11/06 05:17:10;;;;;;;106.65;23.10;;;;;;;10.11;94.28;100352.44;5050922;28;20028;-39
2021/11/06 05:19:36;;;;;;;75.90;22.20;;;;;;;10.14;93.77;100358.22;5050887;28;20029;-39
2021/11/06 05:22:02;;;;;;;118.47;23.75;;;;;;;10.16;94.12;100355.38;5049632;28;20021;-40
2021/11/06 05:24:28;;;;;;;111.10;22.92;;;;;;;9.99;94.24;100354.75;5050556;28;20035;-39
2021/11/06 05:26:53;;;;;;;77.93;21.20;;;;;;;10.10;92.67;100327.69;5050665;28;20032;-39
2021/11/06 05:29:19;;;;;;;147.27;26.10;;;;;;;10.17;92.15;100368.50;5050572;28;20024;-41
2021/11/06 05:31:45;;;;;;;128.52;22.05;;;;;;;9.89;94.42;100365.69;5050439;28;20039;-39
2021/11/06 05:34:11;;;;;;;76.13;22.23;;;;;;;9.80;94.25;100377.41;5050114;28;20057;-39
2021/11/06 05:36:36;;;;;;;94.38;34.00;;;;;;;9.82;94.62;100383.38;5050364;28;20031;-39
2021/11/06 05:39:03;;;;;;;70.78;31.23;;;;;;;9.92;94.87;100399.88;5050883;28;20025;-39
2021/11/06 05:41:28;;;;;;;50.78;24.52;;;;;;;10.09;94.17;100413.81;5049984;28;20052;-39
2021/11/06 05:43:54;;;;;;;48.15;24.05;;;;;;;10.11;94.30;100414.47;5050483;28;20430;-40
2021/11/06 05:46:19;;;;;;;72.43;32.42;;;;;;;10.22;94.58;100418.47;5050463;28;20036;-40
2021/11/06 05:48:45;;;;;;;61.75;21.00;;;;;;;10.40;92.79;100431.44;5050107;28;20020;-40
2021/11/06 05:51:10;;;;;;;52.00;20.77;;;;;;;10.35;93.16;100433.81;5050314;28;20086;-39
2021/11/06 05:53:36;;;;;;;65.22;21.35;;;;;;;10.39;92.56;100431.63;5050313;28;20044;-39
2021/11/06 05:56:02;;;;;;;82.32;21.52;;;;;;;10.29;92.46;100435.34;5050061;28;20060;-40
2021/11/06 05:58:27;;;;;;;105.53;22.02;;;;;;;10.18;93.83;100427.84;5050425;28;20029;-40
2021/11/06 06:00:52;;;;;;;105.05;21.85;;;;;;;10.24;92.97;100428.94;5050538;28;20021;-40
2021/11/06 06:03:18;;;;;;;87.85;21.25;;;;;;;10.24;93.77;100437.72;5054230;28;20090;-39
2021/11/06 06:05:44;;;;;;;97.15;21.63;;;;;;;10.23;93.27;100436.09;5054720;28;20036;-38
2021/11/06 06:08:10;;;;;;;125.53;22.73;;;;;;;10.32;91.79;100432.38;5054125;28;20029;-40
2021/11/06 06:10:35;;;;;;;60.15;22.70;;;;;;;10.16;93.18;100451.94;5054178;28;20021;-40
2021/11/06 06:13:01;;;;;;;75.30;20.23;;;;;;;10.16;92.29;100454.63;5054080;28;20024;-40
2021/11/06 06:15:26;;;;;;;76.85;18.55;;;;;;;10.00;92.31;100444.16;5053784;28;20094;-40
2021/11/06 06:17:52;;;;;;;78.50;18.67;;;;;;;9.94;93.39;100474.16;5053856;28;20024;-38
2021/11/06 06:20:18;;;;;;;101.43;52.90;;;;;;;10.08;93.53;100486.63;5052320;28;20414;-38
2021/11/06 06:22:43;;;;;;;102.68;57.03;;;;;;;10.29;93.03;100496.53;5053851;28;20073;-39
2021/11/06 06:25:10;;;;;;;46.92;25.75;;;;;;;10.71;93.55;100488.94;5053696;28;20020;-40
2021/11/06 06:27:35;;;;;;;41.78;20.98;;;;;;;10.87;91.96;100483.41;5053631;28;20033;-38
2021/11/06 06:30:02;;;;;;;94.82;19.85;;;;;;;10.67;91.43;100482.34;5053386;28;20036;-39
2021/11/06 06:32:27;;;;;;;34.08;19.05;;;;;;;10.67;92.50;100492.97;5053265;28;20033;-39
2021/11/06 06:34:53;;;;;;;39.45;19.23;;;;;;;10.78;91.13;100484.53;5053149;28;20064;-38
2021/11/06 06:37:18;;;;;;;41.58;19.08;;;;;;;10.82;90.98;100483.13;5053189;28;20035;-39
2021/11/06 06:39:44;;;;;;;38.25;18.02;;;;;;;10.65;90.66;100479.84;5053108;28;20029;-39
2021/11/06 06:42:09;;;;;;;38.10;18.42;;;;;;;10.83;90.60;100484.75;5053544;28;20150;-39
2021/11/06 06:44:35;;;;;;;33.00;19.50;;;;;;;10.94;91.37;100483.47;5053156;28;20468;-39
2021/11/06 06:47:01;;;;;;;29.95;18.13;;;;;;;11.20;90.56;100485.59;5053059;28;20110;-39
2021/11/06 06:49:26;;;;;;;36.35;22.20;;;;;;;11.41;90.13;100489.28;5052723;28;20028;-39
2021/11/06 06:51:52;;;;;;;39.03;22.38;;;;;;;11.78;89.84;100495.34;5053147;28;20124;-39
2021/11/06 06:54:17;;;;;;;41.42;23.27;;;;;;;11.79;87.53;100492.47;5052340;28;20058;-40
2021/11/06 06:56:46;;;;;;;34.67;22.13;;;;;;;12.21;88.00;100493.44;5039577;28;20060;-40
2021/11/06 06:59:12;;;;;;;27.63;17.40;;;;;;;12.60;84.38;100494.66;5033141;28;20025;-39
2021/11/06 07:01:38;;;;;;;31.15;18.33;;;;;;;12.49;87.34;100496.06;5032862;28;20029;-39
2021/11/06 07:04:04;;;;;;;25.23;16.00;;;;;;;12.45;84.21;100509.97;5033129;28;20057;-39
2021/11/06 07:06:30;;;;;;;33.88;18.85;;;;;;;12.41;86.13;100512.22;5031900;28;20067;-39
2021/11/06 07:08:57;;;;;;;30.10;19.13;;;;;;;12.51;86.44;100515.38;5032887;28;20537;-39
2021/11/06 07:11:22;;;;;;;31.80;19.42;;;;;;;12.84;85.92;100511.19;5032964;28;20030;-39
2021/11/06 07:13:48;;;;;;;36.78;19.90;;;;;;;12.77;85.19;100521.84;5031935;28;20033;-39
2021/11/06 07:16:13;;;;;;;44.08;23.02;;;;;;;13.12;84.56;100521.78;5032538;28;20087;-39
2021/11/06 07:18:40;;;;;;;33.50;19.30;;;;;;;13.19;82.63;100514.59;5031574;28;20072;-40
2021/11/06 07:21:06;;;;;;;50.78;26.05;;;;;;;13.33;83.90;100520.84;5032329;28;20022;-39
2021/11/06 07:23:32;;;;;;;46.92;24.10;;;;;;;13.38;83.69;100509.53;5032110;28;20033;-44
2021/11/06 07:26:00;;;;;;;40.00;23.00;;;;;;;14.20;82.45;100515.50;5042859;28;20044;-39
2021/11/06 07:28:26;;;;;;;55.13;31.88;;;;;;;14.51;79.76;100516.66;5052030;28;20455;-39
2021/11/06 07:30:52;;;;;;;47.50;26.85;;;;;;;14.65;78.33;100511.09;5052027;28;20104;-39
2021/11/06 07:33:17;;;;;;;38.55;23.25;;;;;;;14.63;77.97;100515.03;5051452;28;20056;-39
2021/11/06 07:35:43;;;;;;;34.72;21.38;;;;;;;14.99;77.70;100517.13;5051023;28;20044;-39
2021/11/06 07:38:09;;;;;;;42.15;22.60;;;;;;;14.87;78.06;100518.84;5051675;28;20032;-39
2021/11/06 07:40:34;;;;;;;29.98;19.75;;;;;;;14.99;79.73;100519.00;5050857;28;20033;-38
2021/11/06 07:43:01;;;;;;;39.65;23.10;;;;;;;16.15;74.54;100527.72;5051073;28;20044;-38
2021/11/06 07:45:27;;;;;;;34.72;21.95;;;;;;;16.06;74.53;100526.34;5050775;28;20116;-39
2021/11/06 07:47:52;;;;;;;34.08;21.13;;;;;;;16.14;73.28;100520.69;5048702;28;20033;-39
2021/11/06 07:50:18;;;;;;;31.90;20.67;;;;;;;17.24;70.92;100533.28;5051074;28;20464;-38
2021/11/06 07:52:43;;;;;;;34.33;20.38;;;;;;;16.63;68.97;100526.19;5046407;28;20036;-39
2021/11/06 07:55:09;;;;;;;31.70;19.98;;;;;;;17.37;66.23;100518.84;5049635;28;20036;-38
2021/11/06 07:57:35;;;;;;;32.67;19.23;;;;;;;16.76;67.96;100521.47;5047470;28;20021;-39
2021/11/06 08:00:01;;;;;;;29.77;20.20;;;;;;;17.17;69.25;100525.31;5032280;28;20026;-39
2021/11/06 08:02:26;;;;;;;31.70;18.85;;;;;;;17.91;67.42;100527.72;5036411;28;20112;-39
2021/11/06 08:04:52;;;;;;;29.45;18.58;;;;;;;17.67;66.11;100532.25;5050593;28;20029;-39
2021/11/06 08:07:17;;;;;;;29.27;18.77;;;;;;;17.34;68.53;100532.72;5049371;28;20033;-38
2021/11/06 08:09:43;;;;;;;27.27;18.90;;;;;;;18.22;65.30;100533.00;5031008;28;20017;-39
2021/11/06 08:12:08;;;;;;;27.67;17.75;;;;;;;17.74;64.01;100519.50;5031075;28;20029;-39
2021/11/06 08:14:34;;;;;;;25.55;17.60;;;;;;;17.98;65.06;100525.75;5030502;28;20644;-39
2021/11/06 08:17:00;;;;;;;25.52;17.20;;;;;;;18.35;63.55;100519.28;5031100;28;20139;-39
2021/11/06 08:19:26;;;;;;;29.65;17.73;;;;;;;18.04;62.99;100515.91;5036800;28;20080;-39
2021/11/06 08:21:51;;;;;;;26.17;17.15;;;;;;;18.67;62.13;100516.19;5051106;28;20085;-38
2021/11/06 08:24:21;;;;;;;25.20;16.77;;;;;;;18.91;60.55;100522.38;5049156;28;20025;-39
2021/11/06 08:26:47;;;;;;;28.15;17.45;;;;;;;18.36;62.82;100518.25;5041312;28;20052;-38
2021/11/06 08:29:12;;;;;;;28.98;16.15;;;;;;;18.64;62.19;100517.50;5041732;28;20083;-39
2021/11/06 08:31:38;;;;;;;24.50;15.57;;;;;;;19.08;61.13;100512.47;5044201;28;20031;-38
2021/11/06 08:34:04;;;;;;;23.67;15.32;;;;;;;18.67;61.07;100517.00;5049988;28;20095;-39
2021/11/06 08:36:29;;;;;;;26.70;15.50;;;;;;;18.58;61.65;100525.72;5049834;28;20025;-38
2021/11/06 08:38:55;;;;;;;25.67;15.75;;;;;;;19.36;59.52;100524.28;5049821;28;20087;-39
2021/11/06 08:41:20;;;;;;;23.55;15.52;;;;;;;18.95;60.79;100524.34;5049941;28;20040;-38
2021/11/06 08:43:46;;;;;;;25.60;15.63;;;;;;;19.16;61.94;100540.94;5050246;28;20373;-38
2021/11/06 08:46:11;;;;;;;26.80;15.70;;;;;;;19.98;58.94;100536.97;5049990;28;20047;-39
2021/11/06 08:48:37;;;;;;;27.02;16.40;;;;;;;19.76;58.74;100526.06;5049938;28;20028;-38
2021/11/06 08:51:03;;;;;;;26.73;16.60;;;;;;;19.50;59.65;100527.50;5050338;28;20025;-38
2021/11/06 08:53:29;;;;;;;22.95;16.80;;;;;;;20.14;58.19;100539.91;5049837;28;20041;-39
2021/11/06 08:55:54;;;;;;;24.73;17.17;;;;;;;19.82;58.27;100546.72;5049930;28;20035;-38
2021/11/06 08:58:20;;;;;;;24.10;17.20;;;;;;;20.22;57.51;100537.59;5050135;28;20021;-38
2021/11/06 09:00:46;;;;;;;27.20;16.33;;;;;;;20.34;56.79;100536.69;5050227;28;20021;-38
2021/11/06 09:03:17;;;;;;;31.02;19.27;;;;;;;20.07;57.04;100534.69;5049538;28;20020;-47
2021/11/06 09:05:43;;;;;;;37.30;18.95;;;;;;;20.00;58.04;100539.44;5049599;28;20580;-49
2021/11/06 09:08:08;;;;;;;25.63;18.92;;;;;;;20.63;57.21;100543.59;5049662;28;20047;-47
2021/11/06 09:10:34;;;;;;;28.88;19.77;;;;;;;19.84;58.03;100530.28;5049387;28;20430;-46
2021/11/06 09:13:00;;;;;;;32.53;19.10;;;;;;;20.04;58.38;100548.66;5049334;28;20025;-50
2021/11/06 09:15:25;;;;;;;29.67;18.73;;;;;;;21.05;55.51;100545.72;5049704;28;20048;-48
2021/11/06 09:17:51;;;;;;;31.33;19.30;;;;;;;20.44;56.43;100536.81;5049623;28;20021;-48
2021/11/06 09:20:16;;;;;;;28.67;19.58;;;;;;;20.42;56.89;100533.53;5049538;28;20024;-40
2021/11/06 09:22:42;;;;;;;27.80;19.30;;;;;;;20.81;56.11;100533.50;5049806;28;20051;-38
2021/11/06 09:25:08;;;;;;;27.15;19.38;;;;;;;20.37;56.90;100522.66;5049601;28;20032;-38
2021/11/06 09:27:34;;;;;;;27.65;19.77;;;;;;;20.46;57.93;100526.56;5049946;28;20024;-38
2021/11/06 09:29:59;;;;;;;31.13;19.65;;;;;;;21.04;54.96;100533.25;5049467;28;20108;-38
2021/11/06 09:32:25;;;;;;;27.35;19.42;;;;;;;20.41;56.78;100527.31;5049590;28;20021;-38
2021/11/06 09:34:50;;;;;;;55.45;38.17;;;;;;;20.66;57.37;100532.28;5049162;28;20468;-39
2021/11/06 09:37:16;;;;;;;40.63;25.02;;;;;;;21.32;53.94;100528.66;5049062;28;20020;-39
2021/11/06 09:39:41;;;;;;;30.80;18.35;;;;;;;20.72;55.77;100524.25;5049564;28;20021;-39
2021/11/06 09:42:07;;;;;;;27.67;18.60;;;;;;;21.22;56.59;100531.28;5049230;28;20480;-39
2021/11/06 09:44:36;;;;;;;27.20;17.30;;;;;;;21.56;54.16;100529.19;5048592;28;20028;-39
2021/11/06 09:47:08;;;;;;;28.63;17.38;;;;;;;20.95;55.65;100525.84;5049192;28;20025;-38
2021/11/06 09:49:34;;;;;;;27.55;17.27;;;;;;;21.92;54.75;100517.84;5049351;28;20078;-39
2021/11/06 09:51:59;;;;;;;25.60;15.70;;;;;;;21.41;55.22;100519.00;5049562;28;20025;-42
2021/11/06 09:54:25;;;;;;;25.83;16.27;;;;;;;21.00;56.58;100531.31;5048964;28;20057;-38
2021/11/06 09:56:50;;;;;;;30.10;16.67;;;;;;;21.66;56.58;100523.03;5031740;28;20029;-37
2021/11/06 09:59:16;;;;;;;28.27;16.65;;;;;;;21.84;53.24;100519.94;5049507;28;20025;-38
2021/11/06 10:01:41;;;;;;;23.17;16.35;;;;;;;21.46;53.74;100516.38;5048135;28;20040;-39
2021/11/06 10:04:08;;;;;;;25.58;16.23;;;;;;;20.96;55.41;100511.25;5048786;28;20033;-38
2021/11/06 10:06:33;;;;;;;30.27;15.60;;;;;;;22.08;53.14;100500.59;5048036;28;20047;-38
2021/11/06 10:08:59;;;;;;;26.60;15.77;;;;;;;22.45;52.20;100506.00;5041701;28;21541;-38
2021/11/06 10:11:29;;;;;;;23.55;15.85;;;;;;;21.70;53.85;100513.31;5047116;28;20407;-38
2021/11/06 10:14:08;;;;;;;29.73;14.93;;;;;;;22.49;53.38;100509.00;5044777;28;20512;-38
2021/11/06 10:16:36;;;;;;;22.38;14.18;;;;;;;23.37;50.80;100504.66;5045652;28;20033;-49
2021/11/06 10:19:05;;;;;;;24.33;13.55;;;;;;;23.37;49.18;100501.94;5047584;28;20166;-51
2021/11/06 10:21:30;;;;;;;;;;;;;;;22.62;49.61;100500.38;5047031;28;20127;-50
2021/11/06 10:23:56;;;;;;;25.40;13.57;;;;;;;23.25;48.32;100506.78;5047134;28;20439;-47
2021/11/06 10:26:22;;;;;;;26.17;13.30;;;;;;;23.73;47.04;100489.16;5047574;28;20517;-48
2021/11/06 10:28:52;;;;;;;28.17;12.80;;;;;;;23.98;46.55;100488.34;5046774;28;20025;-48
2021/11/06 10:31:18;;;;;;;25.80;12.70;;;;;;;22.69;48.92;100480.31;5046395;28;20382;-48
2021/11/06 10:33:45;;;;;;;19.25;10.40;;;;;;;22.67;48.21;100467.00;5047658;28;20045;-48
2021/11/06 10:36:24;;;;;;;20.88;11.10;;;;;;;22.94;48.78;100471.41;5045659;28;20195;-48
2021/11/06 10:39:08;;;;;;;22.13;11.70;;;;;;;22.47;50.75;100458.81;5048259;28;20047;-47
2021/11/06 10:41:35;;;;;;;20.08;10.80;;;;;;;23.03;48.35;100459.78;5043096;28;20017;-48
2021/11/06 10:44:01;;;;;;;17.92;9.98;;;;;;;23.29;46.86;100467.97;5048207;28;20455;-51
2021/11/06 10:46:28;;;;;;;17.77;8.85;;;;;;;23.56;46.97;100465.00;5048292;28;20021;-47
2021/11/06 10:48:54;;;;;;;22.38;8.65;;;;;;;22.48;48.65;100466.66;5050088;28;20025;-48
2021/11/06 10:51:20;;;;;;;17.17;8.88;;;;;;;22.11;49.36;100461.31;5033960;28;20017;-51
2021/11/06 10:53:59;;;;;;;17.58;8.25;;;;;;;22.56;48.73;100454.50;5052077;28;20536;-48
2021/11/06 10:56:27;;;;;;;14.38;7.50;;;;;;;22.45;48.91;100449.03;5049932;28;20078;-48
2021/11/06 10:58:53;;;;;;;17.83;7.88;;;;;;;22.15;49.04;100454.28;5051242;28;20090;-48
2021/11/06 11:01:33;;;;;;;15.77;7.60;;;;;;;22.12;48.94;100447.50;5051189;28;20033;-48
2021/11/06 11:04:00;;;;;;;;;;;;;;;22.17;49.06;100444.81;5050974;28;20021;-47